Coosada, Alabama
Current Conditions -  °F | °C
As of 10:58 PM on Wednesday 26 Nov 2014 (Local Time) from KMXF Reporting Station
Clear Clear  
Wind Chill: 52°   Ceiling: Unl
Heat Index: 52°   Visibility: 10mi
Dew Point: 35°   Wind: 7mph
Humidity: 53%   Direction: 250°WSW
Pressure: 30.16"   Gusts: NA
Location:  32.5°N, 86.33°W
Report Text: KMXF 270458Z AUTO 25006KT 10SM CLR 11/02 A3016 RMK AO2 SLP216 T01100018
Loading
Personal Weather Stations






























Interactive Weather Map New forecast layout! Learn more

10-Day Weather Forecast

Advertisements
Track Severe Weather on mobile